Time;durP1;ratioP1;P1;durP2;ratioP2;P2;SDS_P1;SDS_P2;PMS_P1;PMS_P2;Temp;Humidity;BMP_temperature;BMP_pressure;BME280_temperature;BME280_humidity;BME280_pressure;Samples;Min_cycle;Max_cycle;Signal;HPM_P1;HPM_P2
2022/08/28 00:01:21;;;;;;;13.10;8.50;;;;;;;20.99;71.48;98653.08;105705;1278;22553;-81
2022/08/28 00:03:48;;;;;;;14.30;8.10;;;;;;;21.00;71.60;98652.23;105724;1278;22563;-81
2022/08/28 00:06:15;;;;;;;14.30;8.10;;;;;;;21.03;71.67;98647.88;105642;1278;22548;-84
2022/08/28 00:08:42;;;;;;;14.50;8.20;;;;;;;21.03;71.56;98649.58;105690;1278;22534;-82
2022/08/28 00:11:09;;;;;;;18.90;8.60;;;;;;;21.01;71.75;98652.45;105901;1278;22861;-82
2022/08/28 00:13:36;;;;;;;14.70;8.40;;;;;;;21.04;71.86;98651.18;105671;1279;22549;-86
2022/08/28 00:16:04;;;;;;;14.10;8.40;;;;;;;21.08;72.01;98654.55;105691;1278;24416;-83
2022/08/28 00:18:31;;;;;;;14.80;8.30;;;;;;;21.12;71.95;98648.49;105733;1278;25301;-83
2022/08/28 00:20:59;;;;;;;12.80;8.10;;;;;;;21.10;71.85;98645.36;105828;1278;25243;-81
2022/08/28 00:23:28;;;;;;;13.10;7.90;;;;;;;21.10;71.93;98648.17;104649;1278;1564494;-82
2022/08/28 00:25:55;;;;;;;17.00;8.40;;;;;;;21.12;72.08;98648.86;105926;1277;23910;-81
2022/08/28 00:28:22;;;;;;;12.80;7.90;;;;;;;21.15;72.06;98647.73;105752;1278;22607;-83
2022/08/28 00:30:52;;;;;;;14.80;8.20;;;;;;;21.14;72.00;98644.19;105867;1278;25232;-82
2022/08/28 00:33:34;;;;;;;16.30;9.10;;;;;;;21.14;71.96;98636.08;105964;1277;22549;-86
2022/08/28 00:36:02;;;;;;;14.80;8.50;;;;;;;21.10;72.00;98630.96;105744;1277;22550;-86
2022/08/28 00:38:29;;;;;;;14.40;8.90;;;;;;;21.09;72.15;98628.40;105713;1280;25231;-80
2022/08/28 00:41:00;;;;;;;16.00;9.00;;;;;;;21.07;72.07;98632.27;105921;1277;22635;-86
2022/08/28 00:43:33;;;;;;;13.30;8.00;;;;;;;21.05;72.11;98630.64;105898;1277;23801;-85
2022/08/28 00:46:02;;;;;;;13.00;8.20;;;;;;;21.03;72.23;98628.12;105900;1277;25328;-83
2022/08/28 00:48:30;;;;;;;14.60;7.80;;;;;;;21.04;72.33;98625.70;105933;1277;22660;-81
2022/08/28 00:53:43;;;;;;;12.40;7.20;;;;;;;21.01;72.30;98628.98;105817;1278;22583;-81
2022/08/28 00:56:12;;;;;;;15.20;7.70;;;;;;;20.99;72.45;98628.73;105904;1277;22637;-82
2022/08/28 00:58:42;;;;;;;13.60;8.90;;;;;;;20.99;72.48;98628.49;105826;1278;25300;-82
2022/08/28 01:01:10;;;;;;;13.70;9.10;;;;;;;20.93;72.17;98628.92;105736;1280;22639;-81
2022/08/28 01:03:36;;;;;;;16.10;8.50;;;;;;;20.83;72.26;98626.73;105875;1277;22576;-86
2022/08/28 01:06:07;;;;;;;17.80;9.20;;;;;;;20.78;72.51;98627.96;105753;1278;24221;-83
2022/08/28 01:08:39;;;;;;;15.90;8.40;;;;;;;20.77;72.63;98625.06;105781;1278;22540;-85
2022/08/28 01:11:07;;;;;;;13.20;7.90;;;;;;;20.72;72.47;98625.08;105803;1277;22561;-82
2022/08/28 01:13:45;;;;;;;14.70;7.90;;;;;;;20.65;72.50;98622.88;105700;1279;25248;-81
2022/08/28 01:16:16;;;;;;;14.80;8.30;;;;;;;20.65;72.74;98620.37;105905;1280;22602;-85
2022/08/28 01:18:45;;;;;;;15.10;7.80;;;;;;;20.66;72.90;98622.52;105684;1278;22557;-86
2022/08/28 01:21:31;;;;;;;13.00;7.50;;;;;;;20.70;72.84;98622.80;105712;1278;22504;-82
2022/08/28 01:24:03;;;;;;;14.70;8.20;;;;;;;20.77;73.03;98619.05;105679;1277;25354;-81
2022/08/28 01:26:31;;;;;;;14.60;8.60;;;;;;;20.81;72.93;98621.34;105728;1277;25482;-83
2022/08/28 01:28:59;;;;;;;14.10;8.50;;;;;;;20.82;72.88;98618.85;105725;1277;24249;-87
2022/08/28 01:31:29;;;;;;;15.70;9.00;;;;;;;20.84;73.10;98617.28;105919;1276;22710;-86
2022/08/28 01:34:00;;;;;;;15.10;9.20;;;;;;;20.87;73.01;98614.14;105731;1277;22577;-83
2022/08/28 01:36:32;;;;;;;13.50;8.80;;;;;;;20.83;72.74;98609.73;105745;1277;22567;-84
2022/08/28 01:39:09;;;;;;;12.90;8.20;;;;;;;20.75;72.85;98609.15;105889;1277;22716;-85
2022/08/28 01:41:42;;;;;;;14.00;7.90;;;;;;;20.76;73.03;98613.24;105813;1277;22538;-86
2022/08/28 01:44:09;;;;;;;15.10;8.50;;;;;;;20.78;73.12;98613.89;105902;1276;22634;-87
2022/08/28 01:46:36;;;;;;;12.60;7.60;;;;;;;20.80;73.03;98609.27;105815;1277;25242;-85
2022/08/28 01:49:03;;;;;;;13.90;7.80;;;;;;;20.81;73.12;98612.14;105748;1278;22579;-82
2022/08/28 01:51:30;;;;;;;13.90;8.00;;;;;;;20.81;73.25;98610.98;105703;1277;25321;-81
2022/08/28 01:54:00;;;;;;;12.80;8.30;;;;;;;20.85;73.25;98615.23;105733;1277;22661;-82
2022/08/28 01:56:49;;;;;;;16.30;8.50;;;;;;;20.86;73.26;98618.14;105728;1278;22551;-85
2022/08/28 01:59:20;;;;;;;14.50;8.40;;;;;;;20.85;73.35;98618.70;105792;1277;25229;-83
2022/08/28 02:01:49;;;;;;;15.20;8.60;;;;;;;20.84;73.38;98617.48;105636;1277;22711;-82
2022/08/28 02:04:19;;;;;;;14.50;8.50;;;;;;;20.82;73.29;98618.67;105655;1280;22623;-81
2022/08/28 02:06:51;;;;;;;13.20;7.70;;;;;;;20.79;73.33;98617.88;105538;1278;25336;-82
2022/08/28 02:09:18;;;;;;;15.40;8.30;;;;;;;20.81;73.57;98617.87;105739;1276;22571;-81
2022/08/28 02:11:46;;;;;;;14.50;8.60;;;;;;;20.83;73.49;98615.64;105700;1277;24216;-83
2022/08/28 02:14:13;;;;;;;15.40;8.30;;;;;;;20.84;73.47;98609.05;105911;1277;22564;-84
2022/08/28 02:16:40;;;;;;;13.50;8.20;;;;;;;20.82;73.30;98612.66;105836;1276;25288;-85
2022/08/28 02:19:10;;;;;;;16.00;8.70;;;;;;;20.81;73.57;98610.15;105732;1276;22840;-87
2022/08/28 02:21:38;;;;;;;14.00;8.10;;;;;;;20.82;73.67;98611.23;105804;1276;25168;-83
2022/08/28 02:24:05;;;;;;;17.70;9.00;;;;;;;20.83;73.59;98613.91;105688;1278;22851;-85
2022/08/28 02:26:34;;;;;;;16.20;9.00;;;;;;;20.82;73.69;98612.20;105882;1276;24279;-83
2022/08/28 02:29:02;;;;;;;12.80;8.70;;;;;;;20.78;73.46;98615.90;105867;1276;22563;-82
2022/08/28 02:31:30;;;;;;;12.40;7.90;;;;;;;20.71;73.47;98607.19;105919;1276;25560;-80
2022/08/28 02:34:00;;;;;;;13.60;8.20;;;;;;;20.71;73.66;98605.52;105691;1276;22533;-83
2022/08/28 02:36:32;;;;;;;13.50;8.20;;;;;;;20.66;73.49;98607.01;105720;1277;22808;-82
2022/08/28 02:38:59;;;;;;;15.00;8.80;;;;;;;20.64;73.65;98606.84;105802;1277;22538;-85
2022/08/28 02:41:26;;;;;;;16.70;8.70;;;;;;;20.65;73.74;98606.02;105776;1277;22553;-86
2022/08/28 02:43:53;;;;;;;15.30;10.00;;;;;;;20.63;73.73;98603.36;105778;1277;25204;-82
2022/08/28 02:46:20;;;;;;;16.70;9.60;;;;;;;20.63;73.79;98602.98;105741;1276;25631;-83
2022/08/28 02:48:47;;;;;;;14.40;9.80;;;;;;;20.65;73.92;98605.89;105655;1277;25238;-81
2022/08/28 02:51:14;;;;;;;17.20;8.60;;;;;;;20.68;74.11;98603.31;105762;1277;25423;-82
2022/08/28 02:53:41;;;;;;;15.60;8.70;;;;;;;20.75;74.15;98603.63;105758;1276;23046;-82
2022/08/28 02:56:09;;;;;;;13.30;8.00;;;;;;;20.80;74.08;98602.61;105770;1277;24357;-86
2022/08/28 02:58:38;;;;;;;14.00;8.90;;;;;;;20.82;73.95;98602.63;105747;1277;25478;-83
2022/08/28 03:01:08;;;;;;;15.80;9.30;;;;;;;20.72;73.72;98600.29;105848;1276;25294;-81
2022/08/28 03:03:35;;;;;;;15.90;9.60;;;;;;;20.67;73.73;98598.24;105793;1277;25241;-81
2022/08/28 03:06:03;;;;;;;24.70;9.90;;;;;;;20.61;73.87;98596.94;105855;1276;25239;-81
2022/08/28 03:08:31;;;;;;;15.70;9.40;;;;;;;20.62;74.07;98600.30;105855;1276;22515;-81
2022/08/28 03:10:58;;;;;;;16.20;9.00;;;;;;;20.60;74.04;98602.27;105903;1276;23971;-85
2022/08/28 03:13:26;;;;;;;14.60;9.10;;;;;;;20.60;74.10;98604.27;105699;1277;22850;-82
2022/08/28 03:15:54;;;;;;;14.00;9.00;;;;;;;20.59;74.11;98607.58;105775;1276;24405;-85
2022/08/28 03:18:21;;;;;;;18.80;9.00;;;;;;;20.56;74.10;98607.24;105702;1279;26494;-84
2022/08/28 03:20:48;;;;;;;16.70;8.90;;;;;;;20.58;74.28;98612.20;105707;1277;22535;-81
2022/08/28 03:23:27;;;;;;;17.90;9.20;;;;;;;20.67;74.53;98615.27;105802;1276;22585;-84
2022/08/28 03:25:57;;;;;;;15.80;9.10;;;;;;;20.74;74.41;98616.48;105723;1277;24212;-84
2022/08/28 03:28:27;;;;;;;17.20;9.70;;;;;;;20.69;74.00;98615.02;105865;1276;24431;-83
2022/08/28 03:30:54;;;;;;;15.60;9.60;;;;;;;20.58;74.14;98607.70;105737;1277;22560;-83
2022/08/28 03:33:23;;;;;;;15.60;9.60;;;;;;;20.57;74.32;98610.91;105674;1277;25158;-82
2022/08/28 03:35:50;;;;;;;13.50;8.70;;;;;;;20.57;74.50;98612.25;105701;1277;23926;-82
2022/08/28 03:38:18;;;;;;;16.20;8.60;;;;;;;20.59;74.43;98613.02;105850;1276;24225;-85
2022/08/28 03:40:46;;;;;;;14.50;9.00;;;;;;;20.60;74.52;98613.20;105904;1276;22550;-82
2022/08/28 03:43:16;;;;;;;14.80;8.40;;;;;;;20.61;74.29;98610.02;105689;1277;24491;-81
2022/08/28 03:45:53;;;;;;;12.60;7.80;;;;;;;20.58;74.39;98608.34;105797;1277;23735;-85
2022/08/28 03:48:20;;;;;;;14.20;8.70;;;;;;;20.55;74.44;98610.98;105589;1278;22548;-87
2022/08/28 03:50:52;;;;;;;15.40;8.90;;;;;;;20.53;74.54;98612.01;105698;1279;25504;-86
2022/08/28 03:53:21;;;;;;;15.00;9.40;;;;;;;20.54;74.62;98615.70;105748;1277;24224;-86
2022/08/28 03:55:48;;;;;;;20.20;9.40;;;;;;;20.52;74.52;98614.13;105815;1276;23126;-88
2022/08/28 03:58:15;;;;;;;15.90;9.30;;;;;;;20.52;74.56;98616.66;105852;1276;22991;-83
2022/08/28 04:00:43;;;;;;;15.10;8.70;;;;;;;20.52;74.67;98618.64;105836;1276;22538;-83
2022/08/28 04:03:13;;;;;;;17.40;11.00;;;;;;;20.57;74.76;98625.71;105833;1276;22540;-83
2022/08/28 04:05:42;;;;;;;14.10;9.60;;;;;;;20.56;74.49;98622.16;105788;1276;22548;-85
2022/08/28 04:08:14;;;;;;;17.00;9.10;;;;;;;20.56;74.65;98626.67;105862;1276;22556;-85
2022/08/28 04:10:43;;;;;;;14.20;8.50;;;;;;;20.59;74.76;98627.33;105769;1277;24220;-86
2022/08/28 04:13:11;;;;;;;14.50;8.80;;;;;;;20.62;74.82;98631.36;105696;1278;22588;-82
2022/08/28 04:15:39;;;;;;;13.80;8.50;;;;;;;20.65;74.88;98632.52;105823;1276;25606;-85
2022/08/28 04:18:10;;;;;;;13.90;8.80;;;;;;;20.65;74.74;98633.86;105729;1277;24377;-86
2022/08/28 04:20:37;;;;;;;16.10;8.70;;;;;;;20.63;74.60;98637.45;105789;1276;25464;-81
2022/08/28 04:23:07;;;;;;;14.00;8.80;;;;;;;20.61;74.65;98633.86;105896;1276;22561;-83
2022/08/28 04:25:34;;;;;;;14.00;8.30;;;;;;;20.55;74.44;98640.01;105671;1277;24243;-83
2022/08/28 04:28:01;;;;;;;12.50;7.80;;;;;;;20.52;74.75;98645.13;105674;1280;22745;-83
2022/08/28 04:30:28;;;;;;;13.90;8.80;;;;;;;20.56;74.98;98640.44;105851;1276;24367;-84
2022/08/28 04:32:55;;;;;;;15.40;9.10;;;;;;;20.63;75.03;98643.93;105836;1277;22577;-86
2022/08/28 04:35:22;;;;;;;14.30;8.70;;;;;;;20.67;74.91;98643.31;105863;1277;24191;-81
2022/08/28 04:37:49;;;;;;;15.30;9.10;;;;;;;20.67;74.89;98643.61;105774;1277;25210;-82
2022/08/28 04:40:18;;;;;;;13.60;9.00;;;;;;;20.64;74.83;98643.20;105680;1277;22480;-83
2022/08/28 04:42:46;;;;;;;15.20;8.50;;;;;;;20.66;75.06;98641.25;105751;1277;22688;-83
2022/08/28 04:45:13;;;;;;;14.20;8.50;;;;;;;20.68;74.81;98642.30;105771;1277;25245;-81
2022/08/28 04:47:40;;;;;;;14.80;8.50;;;;;;;20.70;75.05;98642.29;105820;1276;22557;-80
2022/08/28 04:50:09;;;;;;;13.40;8.00;;;;;;;20.78;75.13;98642.29;105813;1276;22557;-85
2022/08/28 04:52:36;;;;;;;15.40;8.70;;;;;;;20.82;75.02;98643.17;105784;1277;25367;-82
2022/08/28 04:55:03;;;;;;;13.90;8.30;;;;;;;20.87;75.22;98642.74;105719;1276;24413;-81
2022/08/28 04:57:30;;;;;;;12.50;8.30;;;;;;;20.92;75.24;98639.70;105679;1278;25510;-85
2022/08/28 04:59:57;;;;;;;14.00;8.60;;;;;;;20.94;75.04;98637.43;105768;1277;23957;-81
2022/08/28 05:02:24;;;;;;;14.20;9.00;;;;;;;20.95;75.11;98641.20;105867;1276;24212;-82
2022/08/28 05:04:51;;;;;;;13.50;9.50;;;;;;;20.95;75.07;98640.82;105693;1277;25521;-83
2022/08/28 05:07:19;;;;;;;15.00;8.90;;;;;;;20.95;75.03;98642.95;105764;1276;24275;-86
2022/08/28 05:09:46;;;;;;;13.10;8.60;;;;;;;20.94;75.03;98640.15;105840;1277;23034;-81
2022/08/28 05:12:16;;;;;;;13.50;8.50;;;;;;;20.98;75.26;98640.38;105827;1277;24212;-82
2022/08/28 05:14:43;;;;;;;15.20;8.30;;;;;;;21.05;75.28;98641.04;105842;1277;24408;-81
2022/08/28 05:17:12;;;;;;;13.30;8.50;;;;;;;21.10;75.26;98641.32;105775;1277;24523;-82
2022/08/28 05:19:42;;;;;;;13.30;9.00;;;;;;;21.12;75.18;98642.66;105802;1279;23327;-82
2022/08/28 05:22:09;;;;;;;15.90;9.20;;;;;;;21.10;74.94;98646.21;105818;1277;22589;-81
2022/08/28 05:24:38;;;;;;;13.70;8.90;;;;;;;21.04;74.92;98646.29;105680;1277;25506;-84
2022/08/28 05:27:07;;;;;;;15.70;9.50;;;;;;;21.02;74.89;98649.45;105906;1276;22547;-83
2022/08/28 05:29:34;;;;;;;14.50;9.00;;;;;;;20.98;74.96;98647.86;105754;1279;22547;-85
2022/08/28 05:32:02;;;;;;;12.90;8.80;;;;;;;20.98;75.20;98648.34;105695;1278;22700;-82
2022/08/28 05:34:30;;;;;;;15.40;9.50;;;;;;;21.01;75.20;98651.31;105677;1277;22547;-82
2022/08/28 05:36:57;;;;;;;13.70;7.90;;;;;;;21.01;75.03;98654.33;105875;1276;22775;-84
2022/08/28 05:39:46;;;;;;;14.00;8.70;;;;;;;21.00;75.13;98653.31;105757;1279;24285;-84
2022/08/28 05:42:19;;;;;;;15.40;8.50;;;;;;;21.06;75.47;98653.89;105868;1276;24449;-86
2022/08/28 05:44:46;;;;;;;15.80;9.40;;;;;;;21.10;75.39;98655.85;105770;1276;24241;-82
2022/08/28 05:47:14;;;;;;;14.40;9.00;;;;;;;21.13;75.38;98655.29;105688;1278;24270;-82
2022/08/28 05:49:43;;;;;;;13.90;8.30;;;;;;;21.08;75.03;98657.27;105761;1277;24817;-81
2022/08/28 05:52:14;;;;;;;14.70;8.10;;;;;;;21.03;75.14;98657.52;105693;1279;24421;-86
2022/08/28 05:54:42;;;;;;;13.00;8.10;;;;;;;21.03;75.27;98660.09;105685;1278;22541;-87
2022/08/28 05:57:11;;;;;;;12.90;8.40;;;;;;;21.05;75.21;98660.16;105795;1277;23864;-81
2022/08/28 05:59:44;;;;;;;11.70;7.90;;;;;;;21.06;75.31;98660.23;105701;1276;25237;-82
2022/08/28 06:02:16;;;;;;;14.60;8.30;;;;;;;21.06;75.23;98659.53;105859;1277;23951;-87
2022/08/28 06:04:47;;;;;;;13.90;8.60;;;;;;;21.08;75.11;98659.84;105892;1277;23943;-81
2022/08/28 06:07:31;;;;;;;12.90;8.00;;;;;;;21.04;75.15;98660.27;105882;1277;22555;-82
2022/08/28 06:09:58;;;;;;;12.50;7.50;;;;;;;21.06;75.12;98661.18;105767;1277;25276;-82
2022/08/28 06:12:25;;;;;;;13.30;6.10;;;;;;;21.07;75.08;98657.09;105676;1278;25532;-82
2022/08/28 06:15:07;;;;;;;10.80;5.40;;;;;;;21.02;74.76;98661.64;105685;1280;22543;-82
2022/08/28 06:17:34;;;;;;;10.10;5.90;;;;;;;20.96;74.93;98663.30;105669;1280;22777;-85
2022/08/28 06:20:14;;;;;;;11.20;6.00;;;;;;;21.00;75.25;98665.52;105802;1277;22652;-80
2022/08/28 06:22:41;;;;;;;11.20;5.60;;;;;;;21.10;75.28;98664.50;105755;1277;22551;-82
2022/08/28 06:25:12;;;;;;;9.30;5.50;;;;;;;21.14;75.31;98666.19;105837;1276;25414;-82
2022/08/28 06:27:48;;;;;;;10.00;3.90;;;;;;;21.24;75.37;98662.88;105807;1278;22689;-83
2022/08/28 06:30:15;;;;;;;7.80;3.40;;;;;;;21.32;75.03;98664.14;105845;1277;22577;-79
2022/08/28 06:32:42;;;;;;;6.00;2.80;;;;;;;21.30;74.76;98662.58;105741;1279;25311;-81
2022/08/28 06:35:09;;;;;;;6.70;2.40;;;;;;;21.33;75.14;98666.36;105671;1277;22937;-80
2022/08/28 06:37:36;;;;;;;6.60;2.70;;;;;;;21.38;74.87;98666.10;105722;1277;24276;-81
2022/08/28 06:40:03;;;;;;;5.70;2.50;;;;;;;21.39;75.03;98664.73;105628;1280;22571;-81
2022/08/28 06:42:30;;;;;;;7.30;2.60;;;;;;;21.36;74.75;98666.27;105726;1279;25304;-82
2022/08/28 06:44:57;;;;;;;7.20;2.80;;;;;;;21.34;74.91;98668.67;105843;1277;22506;-82
2022/08/28 06:47:24;;;;;;;6.00;2.40;;;;;;;21.40;75.05;98673.71;105857;1277;22555;-81
2022/08/28 06:49:51;;;;;;;6.40;2.40;;;;;;;21.49;75.12;98673.13;105855;1276;23363;-87
2022/08/28 06:52:18;;;;;;;5.10;2.20;;;;;;;21.54;74.74;98675.16;105829;1277;24294;-83
2022/08/28 06:54:45;;;;;;;5.40;2.30;;;;;;;21.52;74.70;98680.36;105858;1277;22567;-83
2022/08/28 06:57:15;;;;;;;5.30;2.10;;;;;;;21.58;74.95;98676.60;105685;1280;24256;-84
2022/08/28 06:59:42;;;;;;;4.80;2.10;;;;;;;21.63;74.52;98675.02;105818;1277;22570;-81
2022/08/28 07:02:14;;;;;;;4.50;2.10;;;;;;;21.60;74.41;98673.02;105859;1277;24206;-85
2022/08/28 07:04:41;;;;;;;5.30;2.00;;;;;;;21.57;74.69;98671.69;105798;1277;22563;-83
2022/08/28 07:07:09;;;;;;;4.70;1.90;;;;;;;21.68;74.71;98675.95;105763;1277;22634;-91
2022/08/28 07:09:36;;;;;;;3.40;1.20;;;;;;;21.76;74.81;98677.89;105769;1276;22715;-82
2022/08/28 07:12:03;;;;;;;3.20;1.20;;;;;;;21.88;74.56;98678.60;105751;1277;22573;-81
2022/08/28 07:14:30;;;;;;;2.30;1.20;;;;;;;21.91;74.67;98679.58;105682;1280;25663;-87
2022/08/28 07:16:57;;;;;;;1.90;0.70;;;;;;;22.00;74.77;98682.65;105652;1277;25242;-80
2022/08/28 07:19:24;;;;;;;2.90;1.30;;;;;;;22.01;74.33;98686.20;105773;1276;22536;-83
2022/08/28 07:21:51;;;;;;;2.20;0.90;;;;;;;21.93;74.15;98685.90;105664;1276;22611;-86
2022/08/28 07:24:18;;;;;;;2.30;0.70;;;;;;;21.81;74.20;98683.22;105849;1276;25484;-87
2022/08/28 07:26:46;;;;;;;2.00;0.80;;;;;;;21.72;74.12;98680.64;105853;1276;24234;-81
2022/08/28 07:29:13;;;;;;;1.80;0.60;;;;;;;21.70;74.31;98684.02;105805;1277;22562;-83
2022/08/28 07:31:44;;;;;;;1.80;0.70;;;;;;;21.70;74.20;98687.73;105801;1277;25213;-81
2022/08/28 07:34:19;;;;;;;2.10;0.80;;;;;;;21.66;74.19;98686.22;105804;1277;25312;-82
2022/08/28 07:36:47;;;;;;;1.60;0.70;;;;;;;21.63;74.16;98687.99;105872;1276;22557;-82
2022/08/28 07:39:14;;;;;;;2.30;0.80;;;;;;;21.59;74.02;98695.23;105861;1276;23316;-80
2022/08/28 07:41:41;;;;;;;2.80;0.90;;;;;;;21.52;74.16;98694.65;105824;1277;24328;-84
2022/08/28 07:47:01;;;;;;;2.50;0.80;;;;;;;21.49;74.32;98697.65;105669;1277;25286;-79
2022/08/28 07:49:28;;;;;;;2.40;0.60;;;;;;;21.56;74.31;98700.44;105857;1276;25489;-81
2022/08/28 07:51:56;;;;;;;2.00;0.70;;;;;;;21.65;74.38;98699.30;105837;1276;23256;-85
2022/08/28 07:54:23;;;;;;;2.60;0.90;;;;;;;21.72;74.29;98701.59;105775;1276;25449;-78
2022/08/28 07:56:51;;;;;;;1.80;0.70;;;;;;;21.72;74.19;98704.52;105873;1276;25243;-81
2022/08/28 07:59:19;;;;;;;3.30;0.90;;;;;;;21.80;74.58;98700.89;105716;1276;25384;-79
2022/08/28 08:01:47;;;;;;;1.90;0.80;;;;;;;21.94;74.57;98708.63;105761;1277;26511;-82
2022/08/28 08:04:16;;;;;;;2.00;0.60;;;;;;;22.06;74.47;98709.41;105801;1277;22534;-79
2022/08/28 08:06:45;;;;;;;1.90;0.70;;;;;;;22.08;74.03;98708.84;105885;1276;22951;-86
2022/08/28 08:09:17;;;;;;;2.20;0.70;;;;;;;22.01;73.86;98712.57;105708;1280;25496;-80
2022/08/28 08:11:46;;;;;;;1.60;0.70;;;;;;;21.96;74.16;98715.13;105862;1277;22581;-80
2022/08/28 08:14:14;;;;;;;4.30;0.70;;;;;;;22.02;74.02;98715.98;105763;1279;26485;-81
2022/08/28 08:16:44;;;;;;;2.10;0.60;;;;;;;22.06;74.14;98714.41;105777;1277;22580;-82
2022/08/28 08:19:12;;;;;;;1.00;0.40;;;;;;;22.15;74.04;98715.42;105775;1276;22563;-78
2022/08/28 08:21:47;;;;;;;2.80;0.70;;;;;;;22.08;73.91;98718.42;105891;1276;24244;-85
2022/08/28 08:24:19;;;;;;;1.30;0.60;;;;;;;21.97;73.90;98724.69;105767;1277;22575;-82
2022/08/28 08:26:48;;;;;;;1.90;0.70;;;;;;;21.90;73.93;98724.15;105846;1276;23956;-83
2022/08/28 08:29:16;;;;;;;1.30;0.60;;;;;;;21.87;73.80;98726.14;105808;1276;22753;-81
2022/08/28 08:31:44;;;;;;;1.70;0.50;;;;;;;21.84;73.94;98733.53;105834;1276;26531;-85
2022/08/28 08:34:11;;;;;;;1.50;0.60;;;;;;;21.79;73.69;98735.63;105714;1279;24283;-83
2022/08/28 08:36:38;;;;;;;2.00;0.70;;;;;;;21.69;73.73;98730.70;105660;1279;22577;-87
2022/08/28 08:39:07;;;;;;;1.50;0.60;;;;;;;21.67;73.96;98734.93;105719;1278;24909;-85
2022/08/28 08:41:50;;;;;;;1.50;0.60;;;;;;;21.77;74.18;98736.91;105751;1277;25671;-81
2022/08/28 08:44:29;;;;;;;1.50;0.40;;;;;;;21.85;73.90;98742.32;105846;1277;25299;-79
2022/08/28 08:47:10;;;;;;;2.00;0.40;;;;;;;21.81;73.79;98742.47;105837;1277;24265;-82
2022/08/28 08:49:41;;;;;;;2.60;0.50;;;;;;;21.85;73.96;98741.84;105851;1277;25382;-81
2022/08/28 08:52:11;;;;;;;1.80;0.40;;;;;;;21.87;73.96;98743.35;105739;1279;24279;-78
2022/08/28 08:54:43;;;;;;;2.90;0.60;;;;;;;21.86;74.01;98741.45;105791;1277;22550;-85
2022/08/28 08:57:13;;;;;;;2.90;0.60;;;;;;;21.81;74.10;98738.46;105828;1278;24248;-80
2022/08/28 08:59:41;;;;;;;1.60;0.50;;;;;;;21.85;74.38;98742.19;105747;1279;25340;-78
2022/08/28 09:02:16;;;;;;;1.70;0.40;;;;;;;21.87;73.94;98739.95;105644;1279;22532;-84
2022/08/28 09:04:50;;;;;;;2.10;0.50;;;;;;;21.86;74.19;98745.13;105624;1280;23300;-79
2022/08/28 09:07:29;;;;;;;1.30;0.40;;;;;;;21.84;73.99;98744.98;105803;1280;22534;-84
2022/08/28 09:09:57;;;;;;;1.40;0.60;;;;;;;21.85;73.95;98749.55;105854;1277;23047;-80
2022/08/28 09:12:29;;;;;;;3.00;0.60;;;;;;;21.99;74.28;98749.34;105849;1280;25303;-80
2022/08/28 09:15:25;;;;;;;1.60;0.60;;;;;;;22.19;73.93;98750.73;105763;1279;22708;-86
2022/08/28 09:17:54;;;;;;;1.10;0.50;;;;;;;22.37;73.40;98750.55;105801;1279;25504;-85
2022/08/28 09:20:26;;;;;;;2.40;0.60;;;;;;;22.44;73.83;98752.63;105827;1280;22726;-85
2022/08/28 09:22:54;;;;;;;1.80;0.70;;;;;;;22.54;73.70;98753.27;105866;1276;22541;-86
2022/08/28 09:25:46;;;;;;;1.60;0.60;;;;;;;22.52;73.27;98756.02;105880;1277;24304;-82
2022/08/28 09:28:17;;;;;;;1.90;0.70;;;;;;;22.61;73.69;98756.95;105899;1277;25243;-80
2022/08/28 09:30:56;;;;;;;3.90;0.80;;;;;;;22.79;73.92;98752.80;105812;1280;22704;-86
2022/08/28 09:33:51;;;;;;;2.20;0.80;;;;;;;22.92;73.43;98756.73;105774;1279;22541;-83
2022/08/28 09:36:35;;;;;;;1.90;0.60;;;;;;;23.00;73.61;98759.25;105760;1279;24273;-80
2022/08/28 09:39:24;;;;;;;4.10;1.00;;;;;;;23.03;73.55;98764.80;105737;1277;24361;-85
2022/08/28 09:45:17;;;;;;;2.80;1.10;;;;;;;23.02;73.19;98763.87;105813;1280;22607;-83
2022/08/28 09:47:50;;;;;;;2.00;1.00;;;;;;;23.02;73.33;98768.02;105534;1284;25274;-78
2022/08/28 09:50:36;;;;;;;3.20;1.40;;;;;;;22.86;73.04;98770.94;105385;1283;24391;-78
2022/08/28 09:53:10;;;;;;;2.30;0.90;;;;;;;22.64;72.91;98778.70;105327;1285;22698;-85
2022/08/28 09:55:59;;;;;;;1.90;0.90;;;;;;;22.39;73.12;98780.92;105500;1286;24274;-82
2022/08/28 09:58:45;;;;;;;2.70;1.00;;;;;;;22.09;72.93;98788.55;105443;1285;24322;-80
2022/08/28 10:01:48;;;;;;;3.40;1.20;;;;;;;21.70;72.64;98794.97;105007;1283;24298;-81
2022/08/28 10:04:39;;;;;;;2.60;1.00;;;;;;;21.39;73.27;98794.19;105033;1284;25280;-79
2022/08/28 10:07:29;;;;;;;1.70;0.70;;;;;;;21.31;73.28;98798.04;105093;1285;22538;-82
2022/08/28 10:10:18;;;;;;;1.30;0.50;;;;;;;21.18;73.30;98799.09;105209;1284;22563;-78
2022/08/28 10:13:24;;;;;;;1.70;0.50;;;;;;;21.10;73.48;98798.21;105436;1285;25333;-79
2022/08/28 10:16:16;;;;;;;1.40;0.60;;;;;;;21.09;73.62;98802.84;105230;1284;24298;-85
2022/08/28 10:19:05;;;;;;;2.30;0.70;;;;;;;21.02;73.54;98798.77;104909;1286;23406;-84
2022/08/28 10:21:43;;;;;;;1.40;0.50;;;;;;;20.96;73.71;98795.15;105104;1285;25253;-78
2022/08/28 10:24:29;;;;;;;3.10;0.60;;;;;;;20.94;73.71;98804.10;105542;1279;25559;-85
2022/08/28 10:27:13;;;;;;;1.10;0.50;;;;;;;20.92;73.82;98806.65;105916;1277;22850;-79
2022/08/28 10:29:49;;;;;;;1.20;0.50;;;;;;;20.92;73.83;98810.44;105851;1277;24217;-84
2022/08/28 10:32:47;;;;;;;3.50;0.80;;;;;;;20.86;73.39;98805.70;105734;1280;25242;-78
2022/08/28 10:35:22;;;;;;;2.20;0.80;;;;;;;20.73;73.59;98811.52;105775;1276;24242;-83
2022/08/28 10:37:58;;;;;;;2.10;0.80;;;;;;;20.69;73.69;98816.89;105745;1277;25306;-79
2022/08/28 10:40:29;;;;;;;1.30;0.50;;;;;;;20.68;73.77;98815.88;105656;1278;25374;-80
2022/08/28 10:43:04;;;;;;;2.50;0.70;;;;;;;20.63;73.47;98810.34;105689;1277;25392;-80
2022/08/28 10:45:33;;;;;;;1.00;0.50;;;;;;;20.62;73.83;98813.85;105691;1277;22547;-82
2022/08/28 10:48:26;;;;;;;1.90;0.60;;;;;;;20.63;73.93;98812.52;105937;1276;26560;-81
2022/08/28 10:51:01;;;;;;;1.50;0.70;;;;;;;20.67;73.86;98819.61;105571;1276;24288;-79
2022/08/28 10:53:40;;;;;;;1.50;0.70;;;;;;;20.52;73.58;98817.16;105619;1277;22544;-83
2022/08/28 10:56:26;;;;;;;1.10;0.60;;;;;;;20.42;73.86;98818.77;105646;1279;22615;-82
2022/08/28 10:58:57;;;;;;;1.70;0.60;;;;;;;20.38;74.19;98820.48;105711;1276;22573;-86
2022/08/28 11:01:29;;;;;;;1.40;0.60;;;;;;;20.44;74.30;98816.90;105775;1277;24216;-81
2022/08/28 11:03:59;;;;;;;2.10;0.60;;;;;;;20.46;74.06;98817.54;105623;1279;22562;-85
2022/08/28 11:06:32;;;;;;;1.70;0.50;;;;;;;20.44;74.05;98819.98;105767;1277;22624;-80
2022/08/28 11:09:23;;;;;;;2.20;0.70;;;;;;;20.39;74.06;98816.70;105828;1277;24259;-84
2022/08/28 11:12:18;;;;;;;1.40;0.60;;;;;;;20.37;74.17;98822.59;105787;1276;25225;-79
2022/08/28 11:14:50;;;;;;;2.90;0.50;;;;;;;20.27;73.97;98824.85;105769;1277;22655;-81
2022/08/28 11:17:29;;;;;;;0.90;0.40;;;;;;;20.20;74.25;98824.38;105761;1277;22551;-81
2022/08/28 11:20:19;;;;;;;0.70;0.30;;;;;;;20.26;74.43;98827.98;105798;1276;22698;-80
2022/08/28 11:23:08;;;;;;;0.80;0.50;;;;;;;20.35;74.28;98828.23;105723;1277;22638;-82
2022/08/28 11:26:06;;;;;;;0.80;0.40;;;;;;;20.44;74.25;98826.13;106035;1277;22551;-81
2022/08/28 11:28:45;;;;;;;1.50;0.40;;;;;;;20.69;74.70;98830.42;105813;1279;24347;-85
2022/08/28 11:31:18;;;;;;;1.80;0.50;;;;;;;21.14;74.62;98827.98;105809;1279;24278;-79
2022/08/28 11:33:51;;;;;;;1.00;0.40;;;;;;;21.31;73.86;98829.89;105743;1280;22571;-81
2022/08/28 11:36:18;;;;;;;0.80;0.40;;;;;;;21.28;73.65;98830.75;105926;1279;22543;-81
2022/08/28 11:38:52;;;;;;;0.70;0.40;;;;;;;21.30;73.77;98831.14;106125;1279;26490;-79
2022/08/28 11:41:28;;;;;;;0.80;0.40;;;;;;;21.24;73.71;98833.09;105668;1279;22565;-80
2022/08/28 11:44:13;;;;;;;1.70;0.90;;;;;;;21.15;73.80;98839.48;106015;1280;22557;-82
2022/08/28 11:46:46;;;;;;;2.90;0.90;;;;;;;21.16;74.11;98842.08;105786;1282;25396;-79
2022/08/28 11:49:25;;;;;;;1.10;0.60;;;;;;;21.24;74.39;98839.56;105795;1278;25350;-85
2022/08/28 11:52:11;;;;;;;2.60;0.60;;;;;;;21.22;73.79;98840.20;105720;1280;25362;-82